sensor_id;sensor_type;location;lat;lon;timestamp;temperature;humidity
19999;DHT22;10160;50.926;4.374;2022-07-17T00:00:20;18.50;99.90
19999;DHT22;10160;50.926;4.374;2022-07-17T00:02:49;18.40;99.90
19999;DHT22;10160;50.926;4.374;2022-07-17T00:05:15;18.50;99.90
19999;DHT22;10160;50.926;4.374;2022-07-17T00:07:41;18.40;99.90
19999;DHT22;10160;50.926;4.374;2022-07-17T00:10:07;18.50;99.90
19999;DHT22;10160;50.926;4.374;2022-07-17T00:12:33;18.40;99.90
19999;DHT22;10160;50.926;4.374;2022-07-17T00:14:58;18.40;99.90
19999;DHT22;10160;50.926;4.374;2022-07-17T00:17:24;18.40;99.90
19999;DHT22;10160;50.926;4.374;2022-07-17T00:19:50;18.30;99.90
19999;DHT22;10160;50.926;4.374;2022-07-17T00:22:15;18.20;99.90
19999;DHT22;10160;50.926;4.374;2022-07-17T00:24:41;18.20;99.90
19999;DHT22;10160;50.926;4.374;2022-07-17T00:27:07;17.90;99.90
19999;DHT22;10160;50.926;4.374;2022-07-17T00:29:32;17.90;99.90
19999;DHT22;10160;50.926;4.374;2022-07-17T00:31:58;18.00;99.90
19999;DHT22;10160;50.926;4.374;2022-07-17T00:34:24;18.00;99.90
19999;DHT22;10160;50.926;4.374;2022-07-17T00:36:50;18.00;99.90
19999;DHT22;10160;50.926;4.374;2022-07-17T00:39:15;17.90;99.90
19999;DHT22;10160;50.926;4.374;2022-07-17T00:41:44;17.90;99.90
19999;DHT22;10160;50.926;4.374;2022-07-17T00:44:11;17.80;99.90
19999;DHT22;10160;50.926;4.374;2022-07-17T00:46:39;17.90;99.90
19999;DHT22;10160;50.926;4.374;2022-07-17T00:49:07;17.80;99.90
19999;DHT22;10160;50.926;4.374;2022-07-17T00:51:33;17.90;99.90
19999;DHT22;10160;50.926;4.374;2022-07-17T00:54:00;17.60;99.90
19999;DHT22;10160;50.926;4.374;2022-07-17T00:56:27;17.40;99.90
19999;DHT22;10160;50.926;4.374;2022-07-17T00:58:53;17.40;99.90
19999;DHT22;10160;50.926;4.374;2022-07-17T01:01:19;17.40;99.90
19999;DHT22;10160;50.926;4.374;2022-07-17T01:03:45;17.60;99.90
19999;DHT22;10160;50.926;4.374;2022-07-17T01:06:11;17.50;99.90
19999;DHT22;10160;50.926;4.374;2022-07-17T01:08:37;17.40;99.90
19999;DHT22;10160;50.926;4.374;2022-07-17T01:11:03;17.50;99.90
19999;DHT22;10160;50.926;4.374;2022-07-17T01:13:30;17.50;99.90
19999;DHT22;10160;50.926;4.374;2022-07-17T01:15:57;17.20;99.90
19999;DHT22;10160;50.926;4.374;2022-07-17T01:18:23;17.30;99.90
19999;DHT22;10160;50.926;4.374;2022-07-17T01:20:49;17.30;99.90
19999;DHT22;10160;50.926;4.374;2022-07-17T01:23:17;17.10;99.90
19999;DHT22;10160;50.926;4.374;2022-07-17T01:25:44;17.00;99.90
19999;DHT22;10160;50.926;4.374;2022-07-17T01:28:10;16.90;99.90
19999;DHT22;10160;50.926;4.374;2022-07-17T01:30:36;16.80;99.90
19999;DHT22;10160;50.926;4.374;2022-07-17T01:33:02;17.00;99.90
19999;DHT22;10160;50.926;4.374;2022-07-17T01:35:28;17.10;99.90
19999;DHT22;10160;50.926;4.374;2022-07-17T01:37:54;17.10;99.90
19999;DHT22;10160;50.926;4.374;2022-07-17T01:40:20;16.60;99.90
19999;DHT22;10160;50.926;4.374;2022-07-17T01:42:48;16.80;99.90
19999;DHT22;10160;50.926;4.374;2022-07-17T01:45:15;16.80;99.90
19999;DHT22;10160;50.926;4.374;2022-07-17T01:47:42;17.00;99.90
19999;DHT22;10160;50.926;4.374;2022-07-17T01:50:09;17.00;99.90
19999;DHT22;10160;50.926;4.374;2022-07-17T01:52:37;17.10;99.90
19999;DHT22;10160;50.926;4.374;2022-07-17T01:55:08;17.00;99.90
19999;DHT22;10160;50.926;4.374;2022-07-17T01:57:34;17.00;99.90
19999;DHT22;10160;50.926;4.374;2022-07-17T02:00:00;16.90;99.90
19999;DHT22;10160;50.926;4.374;2022-07-17T02:02:26;16.90;99.90
19999;DHT22;10160;50.926;4.374;2022-07-17T02:04:52;16.90;99.90
19999;DHT22;10160;50.926;4.374;2022-07-17T02:07:21;16.90;99.90
19999;DHT22;10160;50.926;4.374;2022-07-17T02:09:47;16.90;99.90
19999;DHT22;10160;50.926;4.374;2022-07-17T02:12:12;17.00;99.90
19999;DHT22;10160;50.926;4.374;2022-07-17T02:14:38;17.10;99.90
19999;DHT22;10160;50.926;4.374;2022-07-17T02:17:04;17.00;99.90
19999;DHT22;10160;50.926;4.374;2022-07-17T02:19:30;17.00;99.90
19999;DHT22;10160;50.926;4.374;2022-07-17T02:21:55;16.80;99.90
19999;DHT22;10160;50.926;4.374;2022-07-17T02:24:21;16.90;99.90
19999;DHT22;10160;50.926;4.374;2022-07-17T02:26:47;16.80;99.90
19999;DHT22;10160;50.926;4.374;2022-07-17T02:29:13;16.80;99.90
19999;DHT22;10160;50.926;4.374;2022-07-17T02:31:38;16.90;99.90
19999;DHT22;10160;50.926;4.374;2022-07-17T02:34:04;16.80;99.90
19999;DHT22;10160;50.926;4.374;2022-07-17T02:36:30;16.80;99.90
19999;DHT22;10160;50.926;4.374;2022-07-17T02:38:56;16.90;99.90
19999;DHT22;10160;50.926;4.374;2022-07-17T02:41:21;16.90;99.90
19999;DHT22;10160;50.926;4.374;2022-07-17T02:43:47;16.90;99.90
19999;DHT22;10160;50.926;4.374;2022-07-17T02:46:13;16.70;99.90
19999;DHT22;10160;50.926;4.374;2022-07-17T02:48:41;16.60;99.90
19999;DHT22;10160;50.926;4.374;2022-07-17T02:51:08;16.40;99.90
19999;DHT22;10160;50.926;4.374;2022-07-17T02:53:33;16.60;99.90
19999;DHT22;10160;50.926;4.374;2022-07-17T02:55:59;16.60;99.90
19999;DHT22;10160;50.926;4.374;2022-07-17T02:58:25;16.50;99.90
19999;DHT22;10160;50.926;4.374;2022-07-17T03:00:51;16.40;99.90
19999;DHT22;10160;50.926;4.374;2022-07-17T03:03:17;16.40;99.90
19999;DHT22;10160;50.926;4.374;2022-07-17T03:05:45;16.50;99.90
19999;DHT22;10160;50.926;4.374;2022-07-17T03:08:11;16.60;99.90
19999;DHT22;10160;50.926;4.374;2022-07-17T03:10:36;16.60;99.90
19999;DHT22;10160;50.926;4.374;2022-07-17T03:13:02;16.50;99.90
19999;DHT22;10160;50.926;4.374;2022-07-17T03:15:27;16.20;99.90
19999;DHT22;10160;50.926;4.374;2022-07-17T03:17:53;16.10;99.90
19999;DHT22;10160;50.926;4.374;2022-07-17T03:20:19;16.20;99.90
19999;DHT22;10160;50.926;4.374;2022-07-17T03:22:45;16.30;99.90
19999;DHT22;10160;50.926;4.374;2022-07-17T03:25:11;16.30;99.90
19999;DHT22;10160;50.926;4.374;2022-07-17T03:27:36;16.40;99.90
19999;DHT22;10160;50.926;4.374;2022-07-17T03:30:04;16.10;99.90
19999;DHT22;10160;50.926;4.374;2022-07-17T03:32:30;16.10;99.90
19999;DHT22;10160;50.926;4.374;2022-07-17T03:34:56;16.20;99.90
19999;DHT22;10160;50.926;4.374;2022-07-17T03:37:22;16.00;99.90
19999;DHT22;10160;50.926;4.374;2022-07-17T03:39:47;15.80;99.90
19999;DHT22;10160;50.926;4.374;2022-07-17T03:42:13;16.10;99.90
19999;DHT22;10160;50.926;4.374;2022-07-17T03:44:38;16.10;99.90
19999;DHT22;10160;50.926;4.374;2022-07-17T03:47:04;16.10;99.90
19999;DHT22;10160;50.926;4.374;2022-07-17T03:49:30;16.20;99.90
19999;DHT22;10160;50.926;4.374;2022-07-17T03:51:55;16.00;99.90
19999;DHT22;10160;50.926;4.374;2022-07-17T03:54:21;15.90;99.90
19999;DHT22;10160;50.926;4.374;2022-07-17T03:56:47;16.00;99.90
19999;DHT22;10160;50.926;4.374;2022-07-17T03:59:16;16.10;99.90
19999;DHT22;10160;50.926;4.374;2022-07-17T04:01:41;15.80;99.90
19999;DHT22;10160;50.926;4.374;2022-07-17T04:04:07;15.80;99.90
19999;DHT22;10160;50.926;4.374;2022-07-17T04:06:33;16.10;99.90
19999;DHT22;10160;50.926;4.374;2022-07-17T04:08:59;16.10;99.90
19999;DHT22;10160;50.926;4.374;2022-07-17T04:11:24;16.00;99.90
19999;DHT22;10160;50.926;4.374;2022-07-17T04:13:50;15.90;99.90
19999;DHT22;10160;50.926;4.374;2022-07-17T04:16:15;15.90;99.90
19999;DHT22;10160;50.926;4.374;2022-07-17T04:18:41;16.00;99.90
19999;DHT22;10160;50.926;4.374;2022-07-17T04:21:09;16.10;99.90
19999;DHT22;10160;50.926;4.374;2022-07-17T04:23:35;16.20;99.90
19999;DHT22;10160;50.926;4.374;2022-07-17T04:26:01;16.20;99.90
19999;DHT22;10160;50.926;4.374;2022-07-17T04:28:27;16.10;99.90
19999;DHT22;10160;50.926;4.374;2022-07-17T04:30:53;16.10;99.90
19999;DHT22;10160;50.926;4.374;2022-07-17T04:33:18;16.10;99.90
19999;DHT22;10160;50.926;4.374;2022-07-17T04:35:44;16.10;99.90
19999;DHT22;10160;50.926;4.374;2022-07-17T04:38:10;16.20;99.90
19999;DHT22;10160;50.926;4.374;2022-07-17T04:40:37;16.10;99.90
19999;DHT22;10160;50.926;4.374;2022-07-17T04:43:04;16.00;99.90
19999;DHT22;10160;50.926;4.374;2022-07-17T04:45:30;16.10;99.90
19999;DHT22;10160;50.926;4.374;2022-07-17T04:47:59;16.30;99.90
19999;DHT22;10160;50.926;4.374;2022-07-17T04:50:25;16.30;99.90
19999;DHT22;10160;50.926;4.374;2022-07-17T04:52:51;16.20;99.90
19999;DHT22;10160;50.926;4.374;2022-07-17T04:55:17;16.10;99.90
19999;DHT22;10160;50.926;4.374;2022-07-17T04:57:46;16.10;99.90
19999;DHT22;10160;50.926;4.374;2022-07-17T05:00:12;15.70;99.90
19999;DHT22;10160;50.926;4.374;2022-07-17T05:02:38;15.10;99.90
19999;DHT22;10160;50.926;4.374;2022-07-17T05:05:05;14.70;99.90
19999;DHT22;10160;50.926;4.374;2022-07-17T05:07:30;14.60;99.90
19999;DHT22;10160;50.926;4.374;2022-07-17T05:09:57;15.00;99.90
19999;DHT22;10160;50.926;4.374;2022-07-17T05:12:22;15.40;99.90
19999;DHT22;10160;50.926;4.374;2022-07-17T05:14:48;15.70;99.90
19999;DHT22;10160;50.926;4.374;2022-07-17T05:17:13;15.80;99.90
19999;DHT22;10160;50.926;4.374;2022-07-17T05:19:39;16.00;99.90
19999;DHT22;10160;50.926;4.374;2022-07-17T05:22:05;16.00;99.90
19999;DHT22;10160;50.926;4.374;2022-07-17T05:24:31;16.20;99.90
19999;DHT22;10160;50.926;4.374;2022-07-17T05:26:59;16.50;99.90
19999;DHT22;10160;50.926;4.374;2022-07-17T05:29:25;16.50;99.90
19999;DHT22;10160;50.926;4.374;2022-07-17T05:31:50;16.20;99.90
19999;DHT22;10160;50.926;4.374;2022-07-17T05:34:17;16.00;99.90
19999;DHT22;10160;50.926;4.374;2022-07-17T05:36:42;16.10;99.90
19999;DHT22;10160;50.926;4.374;2022-07-17T05:39:08;16.20;99.90
19999;DHT22;10160;50.926;4.374;2022-07-17T05:41:34;16.50;99.90
19999;DHT22;10160;50.926;4.374;2022-07-17T05:44:03;16.70;99.90
19999;DHT22;10160;50.926;4.374;2022-07-17T05:46:33;16.70;99.90
19999;DHT22;10160;50.926;4.374;2022-07-17T05:48:59;17.00;99.90
19999;DHT22;10160;50.926;4.374;2022-07-17T05:51:28;16.70;99.90
19999;DHT22;10160;50.926;4.374;2022-07-17T05:53:53;16.70;99.90
19999;DHT22;10160;50.926;4.374;2022-07-17T05:56:19;16.60;99.90
19999;DHT22;10160;50.926;4.374;2022-07-17T05:58:45;16.50;99.90
19999;DHT22;10160;50.926;4.374;2022-07-17T06:01:11;16.70;99.90
19999;DHT22;10160;50.926;4.374;2022-07-17T06:03:37;17.10;99.90
19999;DHT22;10160;50.926;4.374;2022-07-17T06:06:02;17.50;99.90
19999;DHT22;10160;50.926;4.374;2022-07-17T06:08:28;17.80;99.90
19999;DHT22;10160;50.926;4.374;2022-07-17T06:10:54;17.80;99.90
19999;DHT22;10160;50.926;4.374;2022-07-17T06:13:19;18.00;99.90
19999;DHT22;10160;50.926;4.374;2022-07-17T06:15:45;18.00;99.90
19999;DHT22;10160;50.926;4.374;2022-07-17T06:18:11;18.20;99.90
19999;DHT22;10160;50.926;4.374;2022-07-17T06:20:36;18.30;99.90
19999;DHT22;10160;50.926;4.374;2022-07-17T06:23:02;18.10;99.90
19999;DHT22;10160;50.926;4.374;2022-07-17T06:25:28;18.20;99.90
19999;DHT22;10160;50.926;4.374;2022-07-17T06:27:53;18.50;99.90
19999;DHT22;10160;50.926;4.374;2022-07-17T06:30:19;18.20;99.90
19999;DHT22;10160;50.926;4.374;2022-07-17T06:32:45;18.30;99.90
19999;DHT22;10160;50.926;4.374;2022-07-17T06:35:11;18.70;99.90
19999;DHT22;10160;50.926;4.374;2022-07-17T06:37:37;18.90;99.90
19999;DHT22;10160;50.926;4.374;2022-07-17T06:40:04;18.50;99.90
19999;DHT22;10160;50.926;4.374;2022-07-17T06:42:30;18.40;99.90
19999;DHT22;10160;50.926;4.374;2022-07-17T06:44:56;18.60;99.90
19999;DHT22;10160;50.926;4.374;2022-07-17T06:47:21;18.80;99.90
19999;DHT22;10160;50.926;4.374;2022-07-17T06:49:47;18.80;99.90
19999;DHT22;10160;50.926;4.374;2022-07-17T06:52:12;18.70;99.90
19999;DHT22;10160;50.926;4.374;2022-07-17T06:54:38;18.40;99.90
19999;DHT22;10160;50.926;4.374;2022-07-17T06:57:04;18.50;99.90
19999;DHT22;10160;50.926;4.374;2022-07-17T06:59:29;18.50;99.90
19999;DHT22;10160;50.926;4.374;2022-07-17T07:01:55;18.80;99.90
19999;DHT22;10160;50.926;4.374;2022-07-17T07:04:21;19.00;99.90
19999;DHT22;10160;50.926;4.374;2022-07-17T07:06:46;19.30;99.90
19999;DHT22;10160;50.926;4.374;2022-07-17T07:09:12;19.10;99.90
19999;DHT22;10160;50.926;4.374;2022-07-17T07:11:39;19.10;99.90
19999;DHT22;10160;50.926;4.374;2022-07-17T07:14:06;19.30;99.90
19999;DHT22;10160;50.926;4.374;2022-07-17T07:16:32;19.50;99.90
19999;DHT22;10160;50.926;4.374;2022-07-17T07:18:57;19.40;99.90
19999;DHT22;10160;50.926;4.374;2022-07-17T07:21:23;19.60;99.90
19999;DHT22;10160;50.926;4.374;2022-07-17T07:23:51;19.80;99.90
19999;DHT22;10160;50.926;4.374;2022-07-17T07:26:16;19.90;99.90
19999;DHT22;10160;50.926;4.374;2022-07-17T07:28:42;19.90;99.90
19999;DHT22;10160;50.926;4.374;2022-07-17T07:31:08;19.90;99.90
19999;DHT22;10160;50.926;4.374;2022-07-17T07:33:34;19.70;99.90
19999;DHT22;10160;50.926;4.374;2022-07-17T07:35:59;19.80;99.90
19999;DHT22;10160;50.926;4.374;2022-07-17T07:38:25;19.90;99.90
19999;DHT22;10160;50.926;4.374;2022-07-17T07:40:51;20.00;99.90
19999;DHT22;10160;50.926;4.374;2022-07-17T07:43:16;20.10;99.90
19999;DHT22;10160;50.926;4.374;2022-07-17T07:45:42;20.20;99.90
19999;DHT22;10160;50.926;4.374;2022-07-17T07:48:08;20.40;99.90
19999;DHT22;10160;50.926;4.374;2022-07-17T07:50:34;20.50;99.90
19999;DHT22;10160;50.926;4.374;2022-07-17T07:53:00;20.60;99.90
19999;DHT22;10160;50.926;4.374;2022-07-17T07:55:25;20.50;99.90
19999;DHT22;10160;50.926;4.374;2022-07-17T07:58:06;20.50;99.90
19999;DHT22;10160;50.926;4.374;2022-07-17T08:00:32;20.60;99.90
19999;DHT22;10160;50.926;4.374;2022-07-17T08:03:37;20.70;99.90
19999;DHT22;10160;50.926;4.374;2022-07-17T08:06:09;20.80;99.90
19999;DHT22;10160;50.926;4.374;2022-07-17T08:08:37;20.80;99.90
19999;DHT22;10160;50.926;4.374;2022-07-17T08:11:03;21.00;99.90
19999;DHT22;10160;50.926;4.374;2022-07-17T08:16:41;21.10;99.90
19999;DHT22;10160;50.926;4.374;2022-07-17T08:19:09;21.20;99.90
19999;DHT22;10160;50.926;4.374;2022-07-17T08:21:53;21.40;99.90
19999;DHT22;10160;50.926;4.374;2022-07-17T08:24:22;21.70;99.90
19999;DHT22;10160;50.926;4.374;2022-07-17T08:26:47;21.90;99.90
19999;DHT22;10160;50.926;4.374;2022-07-17T08:29:19;22.10;99.90
19999;DHT22;10160;50.926;4.374;2022-07-17T08:31:48;22.10;99.90
19999;DHT22;10160;50.926;4.374;2022-07-17T08:34:19;22.20;99.90
19999;DHT22;10160;50.926;4.374;2022-07-17T08:36:45;22.40;99.90
19999;DHT22;10160;50.926;4.374;2022-07-17T08:39:11;22.30;99.90
19999;DHT22;10160;50.926;4.374;2022-07-17T08:41:37;22.30;99.90
19999;DHT22;10160;50.926;4.374;2022-07-17T08:44:07;22.60;99.90
19999;DHT22;10160;50.926;4.374;2022-07-17T08:46:35;22.90;99.90
19999;DHT22;10160;50.926;4.374;2022-07-17T08:49:03;22.40;99.90
19999;DHT22;10160;50.926;4.374;2022-07-17T08:51:35;22.40;99.90
19999;DHT22;10160;50.926;4.374;2022-07-17T08:54:01;21.90;99.90
19999;DHT22;10160;50.926;4.374;2022-07-17T08:56:30;22.20;99.90
19999;DHT22;10160;50.926;4.374;2022-07-17T08:58:56;22.30;99.90
19999;DHT22;10160;50.926;4.374;2022-07-17T09:01:23;22.20;99.90
19999;DHT22;10160;50.926;4.374;2022-07-17T09:04:03;22.40;99.90
19999;DHT22;10160;50.926;4.374;2022-07-17T09:06:44;22.50;99.90
19999;DHT22;10160;50.926;4.374;2022-07-17T09:09:14;22.30;99.90
19999;DHT22;10160;50.926;4.374;2022-07-17T09:12:09;22.50;99.90
19999;DHT22;10160;50.926;4.374;2022-07-17T09:14:41;22.10;99.90
19999;DHT22;10160;50.926;4.374;2022-07-17T09:17:11;22.10;99.90
19999;DHT22;10160;50.926;4.374;2022-07-17T09:19:44;21.80;99.90
19999;DHT22;10160;50.926;4.374;2022-07-17T09:22:21;22.10;99.90
19999;DHT22;10160;50.926;4.374;2022-07-17T09:25:06;22.50;99.90
19999;DHT22;10160;50.926;4.374;2022-07-17T09:27:38;22.80;99.90
19999;DHT22;10160;50.926;4.374;2022-07-17T09:30:11;22.30;99.90
19999;DHT22;10160;50.926;4.374;2022-07-17T09:32:39;22.60;99.90
19999;DHT22;10160;50.926;4.374;2022-07-17T09:35:07;22.70;99.90
19999;DHT22;10160;50.926;4.374;2022-07-17T09:37:34;23.00;99.90
19999;DHT22;10160;50.926;4.374;2022-07-17T09:40:00;23.20;99.90
19999;DHT22;10160;50.926;4.374;2022-07-17T09:42:27;22.90;99.90
19999;DHT22;10160;50.926;4.374;2022-07-17T09:44:59;22.40;99.90
19999;DHT22;10160;50.926;4.374;2022-07-17T09:47:26;22.60;99.90
19999;DHT22;10160;50.926;4.374;2022-07-17T09:49:53;23.20;99.90
19999;DHT22;10160;50.926;4.374;2022-07-17T09:52:21;23.40;99.90
19999;DHT22;10160;50.926;4.374;2022-07-17T09:54:48;23.20;99.90
19999;DHT22;10160;50.926;4.374;2022-07-17T09:57:16;23.60;99.90
19999;DHT22;10160;50.926;4.374;2022-07-17T09:59:45;23.30;99.90
19999;DHT22;10160;50.926;4.374;2022-07-17T10:02:12;23.20;99.90
19999;DHT22;10160;50.926;4.374;2022-07-17T10:04:38;23.60;99.90
19999;DHT22;10160;50.926;4.374;2022-07-17T10:07:04;23.70;99.90
19999;DHT22;10160;50.926;4.374;2022-07-17T10:09:32;23.90;99.90
19999;DHT22;10160;50.926;4.374;2022-07-17T10:11:58;24.40;99.90
19999;DHT22;10160;50.926;4.374;2022-07-17T10:14:24;24.60;99.90
19999;DHT22;10160;50.926;4.374;2022-07-17T10:16:50;24.90;99.90
19999;DHT22;10160;50.926;4.374;2022-07-17T10:19:24;24.20;99.90
19999;DHT22;10160;50.926;4.374;2022-07-17T10:22:01;24.60;99.90
19999;DHT22;10160;50.926;4.374;2022-07-17T10:24:30;24.40;99.90
19999;DHT22;10160;50.926;4.374;2022-07-17T10:26:56;24.60;99.90
19999;DHT22;10160;50.926;4.374;2022-07-17T10:29:39;24.50;99.90
19999;DHT22;10160;50.926;4.374;2022-07-17T10:32:14;24.60;99.90
19999;DHT22;10160;50.926;4.374;2022-07-17T10:34:47;24.90;99.90
19999;DHT22;10160;50.926;4.374;2022-07-17T10:37:23;25.60;99.90
19999;DHT22;10160;50.926;4.374;2022-07-17T10:40:22;26.20;99.90
19999;DHT22;10160;50.926;4.374;2022-07-17T10:43:03;26.40;99.90
19999;DHT22;10160;50.926;4.374;2022-07-17T10:45:41;26.80;99.90
19999;DHT22;10160;50.926;4.374;2022-07-17T10:48:20;27.30;99.90
19999;DHT22;10160;50.926;4.374;2022-07-17T10:50:56;26.70;99.90
19999;DHT22;10160;50.926;4.374;2022-07-17T10:53:23;27.20;99.90
19999;DHT22;10160;50.926;4.374;2022-07-17T10:58:30;27.80;99.90
19999;DHT22;10160;50.926;4.374;2022-07-17T11:01:14;27.90;99.90
19999;DHT22;10160;50.926;4.374;2022-07-17T11:03:43;28.00;99.90
19999;DHT22;10160;50.926;4.374;2022-07-17T11:06:12;28.10;99.90
19999;DHT22;10160;50.926;4.374;2022-07-17T11:08:52;27.70;99.90
19999;DHT22;10160;50.926;4.374;2022-07-17T11:11:20;27.90;99.90
19999;DHT22;10160;50.926;4.374;2022-07-17T11:17:10;28.30;99.90
19999;DHT22;10160;50.926;4.374;2022-07-17T11:19:39;28.20;99.90
19999;DHT22;10160;50.926;4.374;2022-07-17T11:22:09;28.80;99.90
19999;DHT22;10160;50.926;4.374;2022-07-17T11:24:41;28.80;99.90
19999;DHT22;10160;50.926;4.374;2022-07-17T11:27:25;29.30;99.90
19999;DHT22;10160;50.926;4.374;2022-07-17T11:29:53;29.50;99.90
19999;DHT22;10160;50.926;4.374;2022-07-17T11:32:19;29.50;99.90
19999;DHT22;10160;50.926;4.374;2022-07-17T11:34:48;29.50;99.90
19999;DHT22;10160;50.926;4.374;2022-07-17T11:37:14;29.60;99.90
19999;DHT22;10160;50.926;4.374;2022-07-17T11:39:45;29.50;99.90
19999;DHT22;10160;50.926;4.374;2022-07-17T11:42:14;29.90;99.90
19999;DHT22;10160;50.926;4.374;2022-07-17T11:44:40;30.00;99.90
19999;DHT22;10160;50.926;4.374;2022-07-17T11:47:11;29.70;99.90
19999;DHT22;10160;50.926;4.374;2022-07-17T11:49:48;30.10;99.90
19999;DHT22;10160;50.926;4.374;2022-07-17T11:52:18;30.40;99.90
19999;DHT22;10160;50.926;4.374;2022-07-17T11:54:55;30.40;99.90
19999;DHT22;10160;50.926;4.374;2022-07-17T12:00:11;30.80;99.80
19999;DHT22;10160;50.926;4.374;2022-07-17T12:02:40;30.60;97.40
19999;DHT22;10160;50.926;4.374;2022-07-17T12:05:10;30.20;98.10
19999;DHT22;10160;50.926;4.374;2022-07-17T12:07:48;30.00;98.90
19999;DHT22;10160;50.926;4.374;2022-07-17T12:16:36;30.80;97.60
19999;DHT22;10160;50.926;4.374;2022-07-17T12:19:05;31.10;96.10
19999;DHT22;10160;50.926;4.374;2022-07-17T12:22:00;31.10;94.00
19999;DHT22;10160;50.926;4.374;2022-07-17T12:24:46;30.80;92.30
19999;DHT22;10160;50.926;4.374;2022-07-17T12:27:21;30.80;92.90
19999;DHT22;10160;50.926;4.374;2022-07-17T12:29:58;31.20;92.60
19999;DHT22;10160;50.926;4.374;2022-07-17T12:32:24;31.20;92.40
19999;DHT22;10160;50.926;4.374;2022-07-17T12:34:49;31.00;92.30
19999;DHT22;10160;50.926;4.374;2022-07-17T12:40:19;30.80;90.90
19999;DHT22;10160;50.926;4.374;2022-07-17T12:42:44;31.10;94.20
19999;DHT22;10160;50.926;4.374;2022-07-17T12:45:13;31.10;93.20
19999;DHT22;10160;50.926;4.374;2022-07-17T12:47:38;30.90;92.50
19999;DHT22;10160;50.926;4.374;2022-07-17T12:50:08;31.00;94.10
19999;DHT22;10160;50.926;4.374;2022-07-17T12:52:36;31.20;94.30
19999;DHT22;10160;50.926;4.374;2022-07-17T12:55:02;31.40;94.20
19999;DHT22;10160;50.926;4.374;2022-07-17T12:57:28;31.60;92.20
19999;DHT22;10160;50.926;4.374;2022-07-17T12:59:57;31.20;91.70
19999;DHT22;10160;50.926;4.374;2022-07-17T13:02:23;30.80;90.50
19999;DHT22;10160;50.926;4.374;2022-07-17T13:04:52;31.10;89.30
19999;DHT22;10160;50.926;4.374;2022-07-17T13:07:17;31.50;90.20
19999;DHT22;10160;50.926;4.374;2022-07-17T13:09:48;31.90;91.10
19999;DHT22;10160;50.926;4.374;2022-07-17T13:12:14;31.80;90.30
19999;DHT22;10160;50.926;4.374;2022-07-17T13:14:40;30.80;90.10
19999;DHT22;10160;50.926;4.374;2022-07-17T13:17:06;31.20;90.00
19999;DHT22;10160;50.926;4.374;2022-07-17T13:19:31;31.50;90.20
19999;DHT22;10160;50.926;4.374;2022-07-17T13:22:33;31.80;90.50
19999;DHT22;10160;50.926;4.374;2022-07-17T13:24:59;32.00;86.30
19999;DHT22;10160;50.926;4.374;2022-07-17T13:27:28;31.70;88.70
19999;DHT22;10160;50.926;4.374;2022-07-17T13:29:56;31.80;82.10
19999;DHT22;10160;50.926;4.374;2022-07-17T13:32:22;32.10;85.70
19999;DHT22;10160;50.926;4.374;2022-07-17T13:34:48;32.30;82.90
19999;DHT22;10160;50.926;4.374;2022-07-17T13:37:22;32.20;79.10
19999;DHT22;10160;50.926;4.374;2022-07-17T13:40:08;32.00;81.40
19999;DHT22;10160;50.926;4.374;2022-07-17T13:42:34;32.10;84.40
19999;DHT22;10160;50.926;4.374;2022-07-17T13:45:10;32.20;84.40
19999;DHT22;10160;50.926;4.374;2022-07-17T13:47:36;32.10;85.30
19999;DHT22;10160;50.926;4.374;2022-07-17T13:53:35;32.50;80.80
19999;DHT22;10160;50.926;4.374;2022-07-17T13:56:00;31.90;76.70
19999;DHT22;10160;50.926;4.374;2022-07-17T13:58:26;31.70;79.80
19999;DHT22;10160;50.926;4.374;2022-07-17T14:01:07;31.70;73.50
19999;DHT22;10160;50.926;4.374;2022-07-17T14:03:33;30.70;78.30
19999;DHT22;10160;50.926;4.374;2022-07-17T14:05:59;30.50;79.30
19999;DHT22;10160;50.926;4.374;2022-07-17T14:08:28;31.10;82.00
19999;DHT22;10160;50.926;4.374;2022-07-17T14:11:00;31.00;81.70
19999;DHT22;10160;50.926;4.374;2022-07-17T14:13:26;31.60;82.90
19999;DHT22;10160;50.926;4.374;2022-07-17T14:15:55;31.30;77.20
19999;DHT22;10160;50.926;4.374;2022-07-17T14:18:32;30.10;77.40
19999;DHT22;10160;50.926;4.374;2022-07-17T14:20:58;28.70;80.70
19999;DHT22;10160;50.926;4.374;2022-07-17T14:23:27;28.80;81.80
19999;DHT22;10160;50.926;4.374;2022-07-17T14:25:53;29.10;84.10
19999;DHT22;10160;50.926;4.374;2022-07-17T14:28:22;29.80;82.30
19999;DHT22;10160;50.926;4.374;2022-07-17T14:30:53;29.90;84.80
19999;DHT22;10160;50.926;4.374;2022-07-17T14:33:19;30.40;78.90
19999;DHT22;10160;50.926;4.374;2022-07-17T14:35:44;30.30;74.30
19999;DHT22;10160;50.926;4.374;2022-07-17T14:38:16;30.20;77.80
19999;DHT22;10160;50.926;4.374;2022-07-17T14:40:51;29.50;76.00
19999;DHT22;10160;50.926;4.374;2022-07-17T14:43:17;30.10;77.60
19999;DHT22;10160;50.926;4.374;2022-07-17T14:45:52;30.70;80.00
19999;DHT22;10160;50.926;4.374;2022-07-17T14:48:17;30.50;70.80
19999;DHT22;10160;50.926;4.374;2022-07-17T14:50:43;30.10;73.70
19999;DHT22;10160;50.926;4.374;2022-07-17T14:53:09;29.60;75.70
19999;DHT22;10160;50.926;4.374;2022-07-17T14:55:35;29.70;78.00
19999;DHT22;10160;50.926;4.374;2022-07-17T15:00:49;29.00;78.30
19999;DHT22;10160;50.926;4.374;2022-07-17T15:03:17;29.50;77.80
19999;DHT22;10160;50.926;4.374;2022-07-17T15:05:46;29.80;83.10
19999;DHT22;10160;50.926;4.374;2022-07-17T15:08:22;30.30;83.10
19999;DHT22;10160;50.926;4.374;2022-07-17T15:10:47;30.70;78.20
19999;DHT22;10160;50.926;4.374;2022-07-17T15:13:13;29.30;76.20
19999;DHT22;10160;50.926;4.374;2022-07-17T15:15:39;29.40;83.00
19999;DHT22;10160;50.926;4.374;2022-07-17T15:18:05;29.60;78.70
19999;DHT22;10160;50.926;4.374;2022-07-17T15:20:30;29.50;80.60
19999;DHT22;10160;50.926;4.374;2022-07-17T15:22:56;29.70;80.70
19999;DHT22;10160;50.926;4.374;2022-07-17T15:25:22;29.50;77.70
19999;DHT22;10160;50.926;4.374;2022-07-17T15:27:47;29.60;83.40
19999;DHT22;10160;50.926;4.374;2022-07-17T15:30:13;30.10;83.40
19999;DHT22;10160;50.926;4.374;2022-07-17T15:32:39;30.10;80.40
19999;DHT22;10160;50.926;4.374;2022-07-17T15:35:05;29.90;82.90
19999;DHT22;10160;50.926;4.374;2022-07-17T15:37:31;30.40;81.30
19999;DHT22;10160;50.926;4.374;2022-07-17T15:39:57;30.00;78.40
19999;DHT22;10160;50.926;4.374;2022-07-17T15:42:27;29.60;78.60
19999;DHT22;10160;50.926;4.374;2022-07-17T15:44:53;29.00;80.70
19999;DHT22;10160;50.926;4.374;2022-07-17T15:47:19;29.50;83.60
19999;DHT22;10160;50.926;4.374;2022-07-17T15:49:45;29.20;79.40
19999;DHT22;10160;50.926;4.374;2022-07-17T15:52:10;29.40;82.00
19999;DHT22;10160;50.926;4.374;2022-07-17T15:54:36;28.90;81.80
19999;DHT22;10160;50.926;4.374;2022-07-17T15:57:02;28.90;82.10
19999;DHT22;10160;50.926;4.374;2022-07-17T15:59:28;28.10;82.90
19999;DHT22;10160;50.926;4.374;2022-07-17T16:01:53;28.00;83.60